West Clarksville, New York
Current Conditions -  °F | °C
As of 7:55 PM on Friday 28 Nov 2014 (Local Time) from KOLE Reporting Station
Overcast Overcast  
Wind Chill: 11°   Ceiling: 3100
Heat Index: 19°   Visibility: 10mi
Dew Point: 14°   Wind: 6mph
Humidity: 80%   Direction: 230°SW
Pressure: 30.12"   Gusts: NA
Location:  42.13°N, 78.24°W
Report Text: KOLE 290055Z AUTO 23005KT 10SM OVC031 M07/M10 A3012 RMK AO2
Loading
Personal Weather Stations






























Interactive Weather Map New forecast layout! Learn more

10-Day Weather Forecast

Advertisements
Track Severe Weather on mobile